Time;durP1;ratioP1;P1;durP2;ratioP2;P2;SDS_P1;SDS_P2;PMS_P1;PMS_P2;Temp;Humidity;BMP_temperature;BMP_pressure;BME280_temperature;BME280_humidity;BME280_pressure;Samples;Min_cycle;Max_cycle;Signal;HPM_P1;HPM_P2
2021/03/03 00:01:25;;;;;;;91.75;44.25;;;6.30;99.90;;;;;;5032222;28;20545;-57
2021/03/03 00:03:50;;;;;;;96.38;46.95;;;6.30;99.90;;;;;;5032467;28;20044;-59
2021/03/03 00:06:16;;;;;;;94.40;44.22;;;6.30;99.90;;;;;;5032926;28;20040;-58
2021/03/03 00:08:42;;;;;;;94.35;44.80;;;6.30;99.90;;;;;;5031724;28;20486;-60
2021/03/03 00:11:07;;;;;;;88.03;42.13;;;6.30;99.90;;;;;;5032598;28;20395;-56
2021/03/03 00:13:33;;;;;;;92.55;43.95;;;6.40;99.90;;;;;;5032318;28;20037;-57
2021/03/03 00:15:59;;;;;;;83.05;41.88;;;6.30;99.90;;;;;;5032630;28;20442;-58
2021/03/03 00:18:25;;;;;;;94.15;44.28;;;6.40;99.90;;;;;;5031123;28;20026;-60
2021/03/03 00:20:50;;;;;;;86.45;43.65;;;6.40;99.90;;;;;;5032980;28;20132;-60
2021/03/03 00:23:16;;;;;;;90.95;46.05;;;6.40;99.90;;;;;;5013855;28;20075;-60
2021/03/03 00:25:42;;;;;;;86.55;45.45;;;6.40;99.90;;;;;;5032407;28;20494;-60
2021/03/03 00:28:07;;;;;;;93.47;46.05;;;6.40;99.90;;;;;;5028492;28;20029;-54
2021/03/03 00:30:33;;;;;;;94.05;46.47;;;6.40;99.90;;;;;;5032836;28;20519;-56
2021/03/03 00:32:59;;;;;;;99.13;48.05;;;6.40;99.90;;;;;;5031975;28;20036;-56
2021/03/03 00:35:24;;;;;;;96.45;48.60;;;6.40;99.90;;;;;;5029581;28;20030;-62
2021/03/03 00:37:50;;;;;;;103.93;50.90;;;6.50;99.90;;;;;;5031139;28;20034;-58
2021/03/03 00:40:16;;;;;;;108.03;51.35;;;6.50;99.90;;;;;;5032370;28;20104;-58
2021/03/03 00:42:41;;;;;;;109.80;53.85;;;6.40;99.90;;;;;;5031288;28;20056;-59
2021/03/03 00:45:08;;;;;;;105.35;51.17;;;6.50;99.90;;;;;;5032370;28;20040;-61
2021/03/03 00:47:34;;;;;;;104.40;51.47;;;6.50;99.90;;;;;;5031229;28;20029;-56
2021/03/03 00:49:59;;;;;;;104.70;51.88;;;6.50;99.90;;;;;;5031708;28;20112;-55
2021/03/03 00:52:25;;;;;;;116.93;54.47;;;6.50;99.90;;;;;;5031549;28;20457;-58
2021/03/03 00:54:51;;;;;;;114.40;51.63;;;6.60;99.90;;;;;;5031905;28;20091;-59
2021/03/03 00:57:17;;;;;;;117.75;54.28;;;6.50;99.90;;;;;;5030902;28;20387;-55
2021/03/03 00:59:42;;;;;;;114.03;53.97;;;6.50;99.90;;;;;;5031917;28;20033;-58
2021/03/03 01:02:08;;;;;;;109.65;52.80;;;6.50;99.90;;;;;;5013078;28;20033;-57
2021/03/03 01:04:34;;;;;;;106.32;52.00;;;6.50;99.90;;;;;;5021056;28;20076;-56
2021/03/03 01:06:59;;;;;;;114.50;52.92;;;6.50;99.90;;;;;;5030945;28;20072;-55
2021/03/03 01:09:25;;;;;;;117.65;53.60;;;6.40;99.90;;;;;;5032191;28;20051;-56
2021/03/03 01:11:51;;;;;;;114.60;55.38;;;6.40;99.90;;;;;;5031183;28;20116;-58
2021/03/03 01:14:17;;;;;;;124.30;53.15;;;6.40;99.90;;;;;;5031108;28;20499;-55
2021/03/03 01:16:49;;;;;;;109.22;53.30;;;6.40;99.90;;;;;;5031792;28;20041;-57
2021/03/03 01:19:14;;;;;;;112.90;52.35;;;6.40;99.90;;;;;;5030801;28;20036;-58
2021/03/03 01:21:40;;;;;;;125.55;53.88;;;6.40;99.90;;;;;;5031144;28;20029;-56
2021/03/03 01:24:06;;;;;;;106.05;52.03;;;6.40;99.90;;;;;;5030600;28;20030;-61
2021/03/03 01:26:32;;;;;;;113.60;52.15;;;6.40;99.90;;;;;;5031094;28;20037;-61
2021/03/03 01:28:58;;;;;;;102.70;49.50;;;6.40;99.90;;;;;;5030834;28;20361;-56
2021/03/03 01:31:23;;;;;;;113.40;53.28;;;6.30;99.90;;;;;;5031333;28;20052;-56
2021/03/03 01:33:49;;;;;;;107.88;52.65;;;6.30;99.90;;;;;;5030947;28;20045;-58
2021/03/03 01:36:14;;;;;;;109.63;53.10;;;6.40;99.90;;;;;;5031940;28;20026;-58
2021/03/03 01:38:40;;;;;;;106.75;54.47;;;6.30;99.90;;;;;;5030531;28;20048;-54
2021/03/03 01:41:06;;;;;;;111.95;52.88;;;6.40;99.90;;;;;;5031143;28;20426;-57
2021/03/03 01:43:32;;;;;;;117.18;53.92;;;6.40;99.90;;;;;;5030426;28;20046;-55
2021/03/03 01:45:58;;;;;;;118.13;55.53;;;6.40;99.90;;;;;;5031254;28;20100;-54
2021/03/03 01:48:24;;;;;;;119.05;52.67;;;6.40;99.90;;;;;;5029784;28;20649;-52
2021/03/03 01:50:50;;;;;;;114.22;53.50;;;6.40;99.90;;;;;;5031298;28;20025;-56
2021/03/03 01:53:16;;;;;;;111.88;53.53;;;6.40;99.90;;;;;;5030096;28;20033;-58
2021/03/03 01:55:42;;;;;;;116.03;55.05;;;6.40;99.90;;;;;;5031024;28;20404;-58
2021/03/03 01:58:08;;;;;;;119.07;54.00;;;6.40;99.90;;;;;;5030788;28;20037;-55
2021/03/03 02:00:34;;;;;;;122.20;51.22;;;6.40;99.90;;;;;;5031162;28;20041;-56
2021/03/03 02:02:59;;;;;;;117.20;54.35;;;6.30;99.90;;;;;;5030289;28;20038;-53
2021/03/03 02:05:26;;;;;;;122.45;55.25;;;6.30;99.90;;;;;;5030549;28;20038;-57
2021/03/03 02:08:10;;;;;;;120.03;55.03;;;6.30;99.90;;;;;;5029857;28;20029;-56
2021/03/03 02:10:50;;;;;;;115.90;53.58;;;6.30;99.90;;;;;;5031428;28;20056;-59
2021/03/03 02:13:29;;;;;;;114.95;54.20;;;6.30;99.90;;;;;;5030243;28;20033;-56
2021/03/03 02:15:57;;;;;;;117.97;54.28;;;6.30;99.90;;;;;;5034005;28;20035;-59
2021/03/03 02:18:25;;;;;;;119.53;54.95;;;6.30;99.90;;;;;;5033911;28;20025;-58
2021/03/03 02:20:58;;;;;;;125.68;55.20;;;6.30;99.90;;;;;;5035042;28;20057;-61
2021/03/03 02:23:37;;;;;;;121.10;55.53;;;6.30;99.90;;;;;;5033932;28;20079;-59
2021/03/03 02:26:04;;;;;;;118.18;53.92;;;6.30;99.90;;;;;;5034344;28;20034;-55
2021/03/03 02:28:31;;;;;;;126.43;55.92;;;6.30;99.90;;;;;;5033480;28;20112;-56
2021/03/03 02:30:57;;;;;;;119.38;53.97;;;6.20;99.90;;;;;;5034758;28;20388;-57
2021/03/03 02:33:23;;;;;;;117.00;56.20;;;6.20;99.90;;;;;;5033569;28;20033;-54
2021/03/03 02:35:49;;;;;;;119.28;55.35;;;6.30;99.90;;;;;;5034935;28;20032;-54
2021/03/03 02:38:16;;;;;;;118.70;54.35;;;6.30;99.90;;;;;;5033498;28;20577;-57
2021/03/03 02:40:44;;;;;;;116.20;52.55;;;6.20;99.90;;;;;;5034356;28;20068;-56
2021/03/03 02:43:16;;;;;;;118.38;52.53;;;6.10;99.90;;;;;;5032451;28;20030;-56
2021/03/03 02:45:42;;;;;;;117.07;54.47;;;6.10;99.90;;;;;;5034206;28;20445;-59
2021/03/03 02:48:09;;;;;;;114.32;52.65;;;6.10;99.90;;;;;;5033463;28;20029;-58
2021/03/03 02:50:36;;;;;;;114.05;53.22;;;6.10;99.90;;;;;;5034184;28;20100;-60
2021/03/03 02:53:02;;;;;;;115.57;53.80;;;6.10;99.90;;;;;;5032233;28;20728;-58
2021/03/03 02:55:29;;;;;;;125.18;55.72;;;6.10;99.90;;;;;;5034614;28;20074;-56
2021/03/03 02:57:59;;;;;;;124.85;56.00;;;6.00;99.90;;;;;;5033502;28;20099;-59
2021/03/03 03:00:37;;;;;;;128.85;57.83;;;6.00;99.90;;;;;;5033844;28;20033;-55
2021/03/03 03:03:16;;;;;;;126.30;54.85;;;6.00;99.90;;;;;;5032714;28;20108;-58
2021/03/03 03:05:46;;;;;;;134.02;57.95;;;6.10;99.90;;;;;;5034109;28;20033;-59
2021/03/03 03:08:16;;;;;;;129.40;56.65;;;6.10;99.90;;;;;;5033431;28;20029;-57
2021/03/03 03:10:44;;;;;;;136.57;58.25;;;6.10;99.90;;;;;;5034109;28;20038;-58
2021/03/03 03:13:13;;;;;;;126.18;56.38;;;6.10;99.90;;;;;;5032722;28;20068;-60
2021/03/03 03:15:40;;;;;;;120.53;54.35;;;6.00;99.90;;;;;;5034117;28;20029;-60
2021/03/03 03:18:15;;;;;;;123.43;56.58;;;6.00;99.90;;;;;;5033281;28;20092;-60
2021/03/03 03:20:42;;;;;;;124.47;55.72;;;6.00;99.90;;;;;;5036742;28;20063;-57
2021/03/03 03:23:09;;;;;;;120.88;54.20;;;6.10;99.90;;;;;;5052598;28;20462;-58
2021/03/03 03:25:36;;;;;;;122.93;54.58;;;6.00;99.90;;;;;;5053756;28;20043;-60
2021/03/03 03:28:02;;;;;;;133.82;56.35;;;6.10;99.90;;;;;;5051424;28;20098;-59
2021/03/03 03:30:29;;;;;;;129.20;53.58;;;6.00;99.90;;;;;;5053464;28;20104;-57
2021/03/03 03:32:58;;;;;;;123.85;56.05;;;6.00;99.90;;;;;;5052411;28;20021;-56
2021/03/03 03:35:26;;;;;;;128.20;57.40;;;6.00;99.90;;;;;;5053719;28;20068;-57
2021/03/03 03:37:52;;;;;;;129.27;55.00;;;6.00;99.90;;;;;;5052313;28;20382;-59
2021/03/03 03:40:18;;;;;;;125.45;53.97;;;6.00;99.90;;;;;;5053238;28;20033;-59
2021/03/03 03:42:45;;;;;;;121.72;53.63;;;6.00;99.90;;;;;;5052657;28;20037;-57
2021/03/03 03:45:12;;;;;;;128.00;55.72;;;6.00;99.90;;;;;;5052737;28;20040;-56
2021/03/03 03:47:39;;;;;;;120.35;54.17;;;6.00;99.90;;;;;;5053238;28;20056;-57
2021/03/03 03:50:06;;;;;;;123.45;53.22;;;5.90;99.90;;;;;;5052491;28;20033;-54
2021/03/03 03:52:34;;;;;;;128.40;54.75;;;5.90;99.90;;;;;;5053299;28;20513;-61
2021/03/03 03:54:59;;;;;;;122.32;53.72;;;5.90;99.90;;;;;;5052801;28;20059;-56
2021/03/03 03:57:25;;;;;;;116.93;54.67;;;5.90;99.90;;;;;;5052546;28;20532;-58
2021/03/03 03:59:51;;;;;;;121.13;51.75;;;5.90;99.90;;;;;;5052061;28;20029;-55
2021/03/03 04:02:17;;;;;;;117.82;54.13;;;5.90;99.90;;;;;;5051722;28;20390;-59
2021/03/03 04:04:43;;;;;;;119.30;52.55;;;5.90;99.90;;;;;;5052136;28;20040;-58
2021/03/03 04:07:08;;;;;;;120.40;51.90;;;5.90;99.90;;;;;;5052838;28;20475;-61
2021/03/03 04:09:34;;;;;;;118.78;53.42;;;5.90;99.90;;;;;;5051715;28;20052;-59
2021/03/03 04:12:00;;;;;;;117.18;51.58;;;5.90;99.90;;;;;;5052568;28;20084;-59
2021/03/03 04:14:26;;;;;;;127.95;54.20;;;5.90;99.90;;;;;;5051963;28;20029;-58
2021/03/03 04:16:52;;;;;;;131.13;56.47;;;5.80;99.90;;;;;;5052881;28;20041;-59
2021/03/03 04:19:18;;;;;;;129.48;58.22;;;5.70;99.90;;;;;;5050010;28;20028;-56
2021/03/03 04:21:44;;;;;;;126.47;53.80;;;5.80;99.90;;;;;;5032154;28;20025;-55
2021/03/03 04:24:10;;;;;;;129.35;54.80;;;5.80;99.90;;;;;;5031315;28;20458;-57
2021/03/03 04:26:35;;;;;;;131.00;55.00;;;5.90;99.90;;;;;;5032226;28;20025;-57
2021/03/03 04:29:01;;;;;;;125.68;54.53;;;5.90;99.90;;;;;;5031877;28;20502;-56
2021/03/03 04:31:27;;;;;;;132.90;57.70;;;5.80;99.90;;;;;;5032330;28;20083;-54
2021/03/03 04:33:53;;;;;;;129.07;55.58;;;5.80;99.90;;;;;;5031815;28;20032;-57
2021/03/03 04:36:18;;;;;;;132.88;56.20;;;5.80;99.90;;;;;;5032189;28;20032;-58
2021/03/03 04:38:44;;;;;;;133.75;54.40;;;5.80;99.90;;;;;;5031266;28;20068;-56
2021/03/03 04:41:10;;;;;;;128.48;53.83;;;5.80;99.90;;;;;;5032174;28;20036;-60
2021/03/03 04:43:35;;;;;;;125.95;54.55;;;5.80;99.90;;;;;;5031122;28;20034;-57
2021/03/03 04:46:01;;;;;;;123.43;53.55;;;5.80;99.90;;;;;;5031991;28;20052;-57
2021/03/03 04:48:27;;;;;;;130.70;54.67;;;5.80;99.90;;;;;;5031360;28;20523;-57
2021/03/03 04:50:53;;;;;;;129.18;54.17;;;5.80;99.90;;;;;;5031920;28;20044;-57
2021/03/03 04:53:19;;;;;;;129.48;56.97;;;5.80;99.90;;;;;;5031688;28;20029;-57
2021/03/03 04:55:45;;;;;;;124.13;52.55;;;5.90;99.90;;;;;;5031801;28;20068;-57
2021/03/03 04:58:11;;;;;;;122.00;51.40;;;5.90;99.90;;;;;;5031679;28;20033;-58
2021/03/03 05:00:37;;;;;;;130.60;55.78;;;5.80;99.90;;;;;;5031377;28;20488;-56
2021/03/03 05:03:03;;;;;;;123.95;54.00;;;5.80;99.90;;;;;;5031226;28;20025;-58
2021/03/03 05:05:29;;;;;;;135.45;57.47;;;5.70;99.90;;;;;;5030804;28;20029;-55
2021/03/03 05:07:54;;;;;;;135.30;55.05;;;5.70;99.90;;;;;;5031711;28;20079;-56
2021/03/03 05:10:20;;;;;;;127.93;53.17;;;5.70;99.90;;;;;;5030659;28;20083;-53
2021/03/03 05:12:46;;;;;;;129.45;54.78;;;5.70;99.90;;;;;;5027480;28;20041;-52
2021/03/03 05:15:12;;;;;;;122.93;53.00;;;5.70;99.90;;;;;;5031087;28;20072;-55
2021/03/03 05:17:38;;;;;;;124.55;55.55;;;5.70;99.90;;;;;;5031768;28;20563;-58
2021/03/03 05:20:05;;;;;;;128.95;54.83;;;5.70;99.90;;;;;;5029960;28;20124;-57
2021/03/03 05:22:31;;;;;;;129.05;54.25;;;5.70;99.90;;;;;;5031710;28;20026;-55
2021/03/03 05:24:57;;;;;;;131.77;55.35;;;5.70;99.90;;;;;;5030403;28;20032;-56
2021/03/03 05:27:22;;;;;;;134.82;53.50;;;5.70;99.90;;;;;;5031165;28;20025;-57
2021/03/03 05:29:48;;;;;;;129.82;54.20;;;5.60;99.90;;;;;;5031023;28;20539;-57
2021/03/03 05:32:14;;;;;;;130.90;55.33;;;5.60;99.90;;;;;;5031658;28;20040;-55
2021/03/03 05:34:39;;;;;;;130.50;53.97;;;5.60;99.90;;;;;;5030822;28;20475;-57
2021/03/03 05:37:05;;;;;;;131.05;55.38;;;5.60;99.90;;;;;;5031191;28;20033;-54
2021/03/03 05:39:31;;;;;;;133.65;55.40;;;5.70;99.90;;;;;;5030744;28;20075;-58
2021/03/03 05:42:00;;;;;;;124.07;52.42;;;5.70;99.90;;;;;;5030950;28;20033;-55
2021/03/03 05:44:27;;;;;;;130.27;55.70;;;5.70;99.90;;;;;;5031077;28;20051;-57
2021/03/03 05:46:56;;;;;;;132.85;54.58;;;5.60;99.90;;;;;;5031501;28;20025;-57
2021/03/03 05:49:24;;;;;;;135.90;56.63;;;5.50;99.90;;;;;;5031544;28;20040;-57
2021/03/03 05:51:51;;;;;;;128.25;54.17;;;5.60;99.90;;;;;;5037825;28;20167;-56
2021/03/03 05:54:17;;;;;;;134.65;55.47;;;5.60;99.90;;;;;;5037139;28;20494;-57
2021/03/03 05:56:45;;;;;;;136.27;55.42;;;5.60;99.90;;;;;;5036776;28;20108;-58
2021/03/03 05:59:11;;;;;;;141.30;58.05;;;5.50;99.90;;;;;;5019543;28;20432;-57
2021/03/03 06:01:37;;;;;;;135.13;58.53;;;5.50;99.90;;;;;;5037895;28;20112;-55
2021/03/03 06:04:06;;;;;;;131.57;56.10;;;5.50;99.90;;;;;;5036987;28;20034;-55
2021/03/03 06:06:32;;;;;;;141.27;56.63;;;5.60;99.90;;;;;;5019951;28;20373;-56
2021/03/03 06:08:58;;;;;;;128.43;57.05;;;5.60;99.90;;;;;;5036672;28;20058;-56
2021/03/03 06:11:23;;;;;;;140.43;56.60;;;5.60;99.90;;;;;;5020381;28;20475;-53
2021/03/03 06:13:49;;;;;;;131.38;54.50;;;5.60;99.90;;;;;;5037034;28;20033;-59
2021/03/03 06:16:16;;;;;;;129.18;55.00;;;5.70;99.90;;;;;;5036511;28;20053;-61
2021/03/03 06:18:42;;;;;;;141.35;56.70;;;5.80;99.90;;;;;;5037517;28;20025;-57
2021/03/03 06:21:24;;;;;;;144.90;58.42;;;5.70;99.90;;;;;;5036575;28;20129;-59
2021/03/03 06:24:08;;;;;;;140.02;56.03;;;5.80;99.90;;;;;;5037204;28;20037;-58
2021/03/03 06:26:57;;;;;;;134.25;55.15;;;5.70;99.90;;;;;;5036925;28;20372;-56
2021/03/03 06:29:23;;;;;;;131.27;54.38;;;5.70;99.90;;;;;;5026185;28;20475;-57
2021/03/03 06:31:49;;;;;;;132.52;56.35;;;5.70;99.90;;;;;;5037703;28;20021;-59
2021/03/03 06:34:23;;;;;;;131.63;53.50;;;5.50;99.90;;;;;;5036727;28;20037;-53
2021/03/03 06:37:02;;;;;;;134.97;55.90;;;5.50;99.90;;;;;;5037064;28;20049;-57
2021/03/03 06:39:33;;;;;;;131.38;55.63;;;5.60;99.90;;;;;;5036924;28;20021;-57
2021/03/03 06:42:04;;;;;;;131.10;53.83;;;5.60;99.90;;;;;;5037258;28;20034;-55
2021/03/03 06:44:51;;;;;;;127.28;53.50;;;5.60;99.90;;;;;;5026323;28;20108;-55
2021/03/03 06:47:18;;;;;;;129.50;53.90;;;5.60;99.90;;;;;;5034242;28;20144;-54
2021/03/03 06:49:45;;;;;;;133.75;56.92;;;5.60;99.90;;;;;;5036362;28;20028;-59
2021/03/03 06:52:11;;;;;;;126.30;55.03;;;5.60;99.90;;;;;;5037240;28;20040;-54
2021/03/03 06:54:37;;;;;;;141.48;56.70;;;5.60;99.90;;;;;;5036701;28;20384;-53
2021/03/03 06:57:08;;;;;;;132.35;55.83;;;5.60;99.90;;;;;;5036382;28;20144;-58
2021/03/03 06:59:41;;;;;;;134.68;57.03;;;5.50;99.90;;;;;;5036509;28;20144;-57
2021/03/03 07:02:10;;;;;;;146.00;56.38;;;5.60;99.90;;;;;;5034942;28;20044;-55
2021/03/03 07:04:37;;;;;;;134.57;56.72;;;5.60;99.90;;;;;;5033353;28;20049;-54
2021/03/03 07:07:12;;;;;;;141.80;57.10;;;5.60;99.90;;;;;;5016402;28;20372;-57
2021/03/03 07:09:40;;;;;;;141.43;58.95;;;5.60;99.90;;;;;;5033187;28;20037;-56
2021/03/03 07:12:09;;;;;;;148.80;60.47;;;5.60;99.90;;;;;;5033785;28;20121;-57
2021/03/03 07:14:36;;;;;;;138.20;56.45;;;5.50;99.90;;;;;;5015560;28;20717;-57
2021/03/03 07:17:06;;;;;;;145.32;57.70;;;5.60;99.90;;;;;;5033715;28;20558;-53
2021/03/03 07:19:38;;;;;;;153.75;56.08;;;5.60;99.90;;;;;;5032569;28;20357;-59
2021/03/03 07:22:07;;;;;;;147.93;58.50;;;5.60;99.90;;;;;;5033901;28;20053;-55
2021/03/03 07:24:34;;;;;;;143.43;55.40;;;5.60;99.90;;;;;;5033044;28;20416;-57
2021/03/03 07:27:02;;;;;;;142.23;56.22;;;5.60;99.90;;;;;;5033066;28;20029;-54
2021/03/03 07:29:29;;;;;;;138.85;56.88;;;5.60;99.90;;;;;;5032881;28;20037;-56
2021/03/03 07:31:55;;;;;;;148.48;59.55;;;5.60;99.90;;;;;;5034081;28;20040;-57
2021/03/03 07:34:21;;;;;;;156.68;58.45;;;5.50;99.90;;;;;;5033375;28;20868;-58
2021/03/03 07:36:50;;;;;;;150.32;58.75;;;5.50;99.90;;;;;;5032878;28;20029;-57
2021/03/03 07:39:18;;;;;;;146.93;61.42;;;5.50;99.90;;;;;;5033400;28;20085;-59
2021/03/03 07:41:45;;;;;;;151.20;60.40;;;5.50;99.90;;;;;;5032392;28;20120;-56
2021/03/03 07:44:16;;;;;;;150.13;58.05;;;5.50;99.90;;;;;;5033123;28;20045;-54
2021/03/03 07:46:43;;;;;;;160.55;62.53;;;5.50;99.90;;;;;;5032229;28;20087;-54
2021/03/03 07:49:11;;;;;;;145.50;58.42;;;5.50;99.90;;;;;;5033164;28;20029;-58
2021/03/03 07:51:40;;;;;;;167.40;63.67;;;5.40;99.90;;;;;;5032447;28;20095;-59
2021/03/03 07:54:09;;;;;;;147.63;59.53;;;5.40;99.90;;;;;;5033266;28;20025;-53
2021/03/03 07:56:35;;;;;;;155.38;57.45;;;5.40;99.90;;;;;;5032409;28;20084;-58
2021/03/03 07:59:06;;;;;;;166.85;61.28;;;5.50;99.90;;;;;;5031484;28;20037;-57
2021/03/03 08:01:32;;;;;;;165.63;61.22;;;5.50;99.90;;;;;;5031959;28;20360;-56
2021/03/03 08:03:58;;;;;;;161.45;62.97;;;5.50;99.90;;;;;;5032970;28;20041;-58
2021/03/03 08:06:26;;;;;;;175.52;62.30;;;5.60;99.90;;;;;;5032419;28;20030;-56
2021/03/03 08:09:08;;;;;;;162.88;61.22;;;5.60;99.90;;;;;;5031929;28;20467;-55
2021/03/03 08:11:42;;;;;;;164.02;60.00;;;5.60;99.90;;;;;;5028874;28;20471;-56
2021/03/03 08:14:31;;;;;;;162.68;59.58;;;5.50;99.90;;;;;;5031310;28;20030;-55
2021/03/03 08:17:00;;;;;;;154.50;59.53;;;5.50;99.90;;;;;;5030468;28;20584;-56
2021/03/03 08:20:02;;;;;;;151.70;61.60;;;5.60;99.90;;;;;;5029918;28;20467;-58
2021/03/03 08:23:00;;;;;;;155.75;56.47;;;5.70;99.90;;;;;;4929458;29;20151;-56
2021/03/03 08:25:49;;;;;;;155.98;59.60;;;5.60;99.90;;;;;;4986765;28;20083;-54
2021/03/03 08:28:50;;;;;;;166.45;60.03;;;5.60;99.90;;;;;;5031022;28;20471;-58
2021/03/03 08:31:17;;;;;;;155.45;61.55;;;5.60;99.90;;;;;;4995689;28;20033;-56
2021/03/03 08:33:44;;;;;;;163.27;60.17;;;5.60;99.90;;;;;;5030721;28;20029;-58
2021/03/03 08:36:31;;;;;;;151.57;58.70;;;5.60;99.90;;;;;;5030445;28;20087;-56
2021/03/03 08:38:57;;;;;;;157.13;63.78;;;5.70;99.90;;;;;;5029350;28;20108;-56
2021/03/03 08:41:25;;;;;;;156.18;62.08;;;5.70;99.90;;;;;;5030367;28;20543;-59
2021/03/03 08:44:06;;;;;;;157.55;60.05;;;5.70;99.90;;;;;;5031226;28;20095;-57
2021/03/03 08:46:33;;;;;;;155.13;60.67;;;5.70;99.90;;;;;;5026492;28;20033;-59
2021/03/03 08:48:59;;;;;;;152.10;58.50;;;5.70;99.90;;;;;;5030294;28;20036;-58
2021/03/03 08:51:33;;;;;;;145.73;56.42;;;5.80;99.90;;;;;;5012206;28;20041;-59
2021/03/03 08:54:01;;;;;;;152.57;58.35;;;5.80;99.90;;;;;;5030870;28;20558;-57
2021/03/03 08:56:41;;;;;;;153.48;59.67;;;5.70;99.90;;;;;;5031054;28;20033;-60
2021/03/03 08:59:07;;;;;;;158.25;58.05;;;5.60;99.90;;;;;;5030895;28;20030;-57
2021/03/03 09:02:21;;;;;;;156.82;61.75;;;5.50;99.90;;;;;;5030100;28;20411;-59
2021/03/03 09:04:53;;;;;;;155.95;57.22;;;5.60;99.90;;;;;;5031057;28;20037;-58
2021/03/03 09:07:21;;;;;;;151.52;56.28;;;5.60;99.90;;;;;;5028689;28;20056;-57
2021/03/03 09:09:50;;;;;;;157.27;60.97;;;5.70;99.90;;;;;;5030951;28;20116;-56
2021/03/03 09:12:19;;;;;;;158.95;59.67;;;5.70;99.90;;;;;;5030084;28;20037;-57
2021/03/03 09:14:46;;;;;;;160.63;60.92;;;5.70;99.90;;;;;;5030703;28;20037;-59
2021/03/03 09:17:14;;;;;;;147.48;56.25;;;5.70;99.90;;;;;;5030271;28;20029;-60
2021/03/03 09:19:41;;;;;;;145.98;58.35;;;5.70;99.90;;;;;;5030726;28;20090;-59
2021/03/03 09:22:31;;;;;;;154.50;58.75;;;5.80;99.90;;;;;;5027728;28;20025;-58
2021/03/03 09:25:11;;;;;;;155.93;59.85;;;5.80;99.90;;;;;;5029154;28;20037;-60
2021/03/03 09:27:46;;;;;;;150.60;59.50;;;5.80;99.90;;;;;;5030124;28;20041;-56
2021/03/03 09:30:12;;;;;;;155.23;59.65;;;5.80;99.90;;;;;;5030493;28;20055;-55
2021/03/03 09:32:38;;;;;;;156.98;60.78;;;5.90;99.90;;;;;;5030071;28;20116;-59
2021/03/03 09:35:06;;;;;;;159.52;58.83;;;6.00;99.90;;;;;;5025515;28;20116;-59
2021/03/03 09:37:43;;;;;;;151.95;59.30;;;5.90;99.90;;;;;;5030030;28;20030;-56
2021/03/03 09:40:11;;;;;;;145.88;56.53;;;5.90;99.90;;;;;;5030696;28;20076;-56
2021/03/03 09:42:44;;;;;;;141.48;57.25;;;5.90;99.90;;;;;;5030486;28;20041;-58
2021/03/03 09:45:15;;;;;;;135.50;55.45;;;5.90;99.90;;;;;;5027070;28;20044;-58
2021/03/03 09:47:42;;;;;;;140.65;58.20;;;5.90;99.90;;;;;;5011363;28;20116;-58
2021/03/03 09:50:10;;;;;;;148.35;58.60;;;5.90;99.90;;;;;;5029058;28;20025;-59
2021/03/03 09:52:44;;;;;;;157.38;58.22;;;5.90;99.90;;;;;;5029556;28;20040;-57
2021/03/03 09:55:14;;;;;;;153.88;59.83;;;5.80;99.90;;;;;;5028206;28;20029;-57
2021/03/03 09:57:42;;;;;;;144.55;57.05;;;5.90;99.90;;;;;;5029094;28;20037;-57
2021/03/03 10:00:14;;;;;;;152.45;61.05;;;5.90;99.90;;;;;;5030665;28;20040;-59
2021/03/03 10:02:46;;;;;;;153.57;57.47;;;6.00;99.90;;;;;;5027417;28;20475;-58
2021/03/03 10:05:38;;;;;;;149.55;57.35;;;5.90;99.90;;;;;;5030746;28;20480;-59
2021/03/03 10:08:08;;;;;;;147.52;57.58;;;6.00;99.90;;;;;;5024536;28;20034;-61
2021/03/03 10:10:37;;;;;;;135.23;53.97;;;6.00;99.90;;;;;;5028445;28;20088;-55
2021/03/03 10:13:04;;;;;;;140.93;54.55;;;6.10;99.90;;;;;;5011739;28;20452;-60
2021/03/03 10:15:38;;;;;;;138.93;55.70;;;6.10;99.90;;;;;;5028989;28;20048;-59
2021/03/03 10:18:11;;;;;;;131.85;53.83;;;6.10;99.90;;;;;;5028430;28;20023;-60
2021/03/03 10:20:56;;;;;;;140.02;54.75;;;6.20;99.90;;;;;;5044781;28;20087;-58
2021/03/03 10:23:24;;;;;;;137.52;52.55;;;6.20;99.90;;;;;;5048053;28;20067;-56
2021/03/03 10:25:52;;;;;;;133.27;54.55;;;6.30;99.90;;;;;;5048654;28;20036;-56
2021/03/03 10:28:23;;;;;;;124.78;51.58;;;6.30;99.90;;;;;;5049227;28;20060;-59
2021/03/03 10:30:54;;;;;;;133.70;52.67;;;6.30;99.90;;;;;;5049059;28;20479;-58
2021/03/03 10:33:32;;;;;;;128.60;53.53;;;6.30;99.90;;;;;;5050025;28;20086;-57
2021/03/03 10:36:14;;;;;;;141.43;55.97;;;6.30;99.90;;;;;;5049779;28;20439;-58
2021/03/03 10:38:53;;;;;;;140.77;54.15;;;6.30;99.90;;;;;;5053923;28;20043;-59
2021/03/03 10:41:24;;;;;;;141.38;56.80;;;6.20;99.90;;;;;;5053295;28;20421;-58
2021/03/03 10:43:51;;;;;;;139.57;53.28;;;6.30;99.90;;;;;;5054187;28;20454;-58
2021/03/03 10:46:18;;;;;;;139.65;55.65;;;6.30;99.90;;;;;;5053543;28;20390;-60
2021/03/03 10:48:48;;;;;;;142.63;56.95;;;6.40;99.90;;;;;;5053880;28;20391;-58
2021/03/03 10:51:16;;;;;;;136.13;53.97;;;6.50;99.90;;;;;;5052474;28;20020;-59
2021/03/03 10:53:59;;;;;;;142.18;53.97;;;6.50;99.90;;;;;;5054262;28;20024;-59
2021/03/03 10:56:28;;;;;;;132.85;50.78;;;6.50;99.90;;;;;;5053892;28;20025;-57
2021/03/03 10:59:03;;;;;;;136.40;53.15;;;6.50;99.90;;;;;;5052928;28;20029;-57
2021/03/03 11:01:44;;;;;;;144.57;51.50;;;6.50;99.90;;;;;;5051701;28;20025;-59
2021/03/03 11:04:10;;;;;;;138.93;56.08;;;6.50;99.90;;;;;;5034960;28;20391;-56
2021/03/03 11:06:36;;;;;;;143.60;54.67;;;6.60;99.90;;;;;;5048077;28;20521;-59
2021/03/03 11:09:06;;;;;;;144.13;57.50;;;6.50;99.90;;;;;;5052382;28;20033;-57
2021/03/03 11:11:32;;;;;;;135.68;54.20;;;6.50;99.90;;;;;;5052625;28;20092;-60
2021/03/03 11:13:57;;;;;;;137.48;53.17;;;6.60;99.90;;;;;;5046969;28;20033;-57
2021/03/03 11:16:23;;;;;;;137.35;53.45;;;6.50;99.90;;;;;;5052279;28;20509;-55
2021/03/03 11:18:50;;;;;;;149.40;54.03;;;6.50;99.90;;;;;;5053748;28;20053;-58
2021/03/03 11:21:15;;;;;;;142.15;53.42;;;6.60;99.90;;;;;;5051074;28;20410;-56
2021/03/03 11:23:41;;;;;;;135.25;54.72;;;6.60;99.90;;;;;;5052375;28;20057;-58
2021/03/03 11:26:07;;;;;;;147.15;54.60;;;6.70;99.90;;;;;;5051641;28;20476;-60
2021/03/03 11:28:33;;;;;;;137.57;54.58;;;6.80;99.90;;;;;;5045002;28;20026;-60
2021/03/03 11:30:58;;;;;;;130.73;51.95;;;6.70;99.90;;;;;;5051751;28;20040;-59
2021/03/03 11:33:24;;;;;;;129.57;53.10;;;6.80;99.90;;;;;;5052381;28;20394;-58
2021/03/03 11:35:50;;;;;;;133.25;51.78;;;6.80;99.90;;;;;;5051429;28;20505;-56
2021/03/03 11:38:16;;;;;;;146.88;54.00;;;6.80;99.90;;;;;;5050529;28;20029;-58
2021/03/03 11:40:41;;;;;;;151.35;53.33;;;6.90;99.90;;;;;;5046940;28;20052;-58
2021/03/03 11:43:07;;;;;;;144.10;54.20;;;7.00;99.90;;;;;;5049837;28;20120;-60
2021/03/03 11:45:33;;;;;;;148.10;58.67;;;7.00;99.90;;;;;;5051168;28;20041;-58
2021/03/03 11:47:59;;;;;;;149.80;55.60;;;6.90;99.90;;;;;;5048462;28;20079;-58
2021/03/03 11:50:25;;;;;;;145.15;56.88;;;7.00;99.90;;;;;;5052516;28;20110;-58
2021/03/03 11:52:51;;;;;;;142.50;56.78;;;7.10;99.90;;;;;;5049396;28;20121;-59
2021/03/03 11:55:16;;;;;;;144.25;54.60;;;7.10;99.90;;;;;;5052308;28;20038;-56
2021/03/03 11:57:42;;;;;;;140.27;54.50;;;7.10;99.90;;;;;;5051139;28;20390;-58
2021/03/03 12:00:13;;;;;;;144.13;55.15;;;7.00;99.90;;;;;;5053097;28;20037;-56
2021/03/03 12:02:39;;;;;;;143.48;50.83;;;7.10;99.90;;;;;;5052563;28;20036;-61
2021/03/03 12:05:06;;;;;;;136.38;53.15;;;7.10;99.90;;;;;;5053213;28;20033;-56
2021/03/03 12:07:33;;;;;;;140.05;51.75;;;7.10;99.90;;;;;;5051676;28;20451;-58
2021/03/03 12:09:58;;;;;;;127.55;50.47;;;7.10;99.90;;;;;;5052014;28;20036;-57
2021/03/03 12:12:24;;;;;;;149.60;55.00;;;7.10;99.90;;;;;;5050014;28;20486;-58
2021/03/03 12:14:50;;;;;;;134.98;53.40;;;7.20;99.90;;;;;;5049566;28;20103;-56
2021/03/03 12:17:16;;;;;;;137.93;53.92;;;7.20;99.90;;;;;;5050093;28;20032;-57
2021/03/03 12:19:41;;;;;;;145.25;55.25;;;7.20;99.90;;;;;;5044985;28;20057;-59
2021/03/03 12:22:07;;;;;;;139.50;56.30;;;7.20;99.90;;;;;;5027774;28;20454;-60
2021/03/03 12:24:33;;;;;;;157.48;54.08;;;7.20;99.90;;;;;;5030949;28;20435;-58
2021/03/03 12:26:59;;;;;;;143.82;55.05;;;7.20;99.90;;;;;;5030269;28;20392;-59
2021/03/03 12:29:25;;;;;;;161.77;54.22;;;7.30;99.90;;;;;;5031738;28;20112;-59
2021/03/03 12:31:50;;;;;;;154.30;53.25;;;7.30;99.90;;;;;;5032023;28;20494;-57
2021/03/03 12:34:16;;;;;;;137.10;52.28;;;7.30;99.90;;;;;;5032736;28;20029;-61
2021/03/03 12:36:41;;;;;;;154.73;55.05;;;7.30;99.90;;;;;;5032064;28;20124;-59